sensor_id;sensor_type;location;lat;lon;timestamp;P1;durP1;ratioP1;P2;durP2;ratioP2
62419;SDS011;48460;51.616;5.426;2022-08-07T00:00:43;7.07;;;4.38;;
62419;SDS011;48460;51.616;5.426;2022-08-07T00:03:11;9.70;;;4.18;;
62419;SDS011;48460;51.616;5.426;2022-08-07T00:05:37;6.05;;;4.00;;
62419;SDS011;48460;51.616;5.426;2022-08-07T00:08:03;8.52;;;4.20;;
62419;SDS011;48460;51.616;5.426;2022-08-07T00:10:29;7.35;;;4.10;;
62419;SDS011;48460;51.616;5.426;2022-08-07T00:12:55;5.13;;;3.65;;
62419;SDS011;48460;51.616;5.426;2022-08-07T00:15:21;6.65;;;3.92;;
62419;SDS011;48460;51.616;5.426;2022-08-07T00:17:49;5.75;;;3.72;;
62419;SDS011;48460;51.616;5.426;2022-08-07T00:20:15;5.38;;;3.45;;
62419;SDS011;48460;51.616;5.426;2022-08-07T00:22:40;7.13;;;4.25;;
62419;SDS011;48460;51.616;5.426;2022-08-07T00:25:06;10.57;;;4.60;;
62419;SDS011;48460;51.616;5.426;2022-08-07T00:27:32;6.28;;;3.90;;
62419;SDS011;48460;51.616;5.426;2022-08-07T00:29:57;8.95;;;4.47;;
62419;SDS011;48460;51.616;5.426;2022-08-07T00:32:23;6.35;;;4.05;;
62419;SDS011;48460;51.616;5.426;2022-08-07T00:34:48;6.38;;;4.18;;
62419;SDS011;48460;51.616;5.426;2022-08-07T00:37:14;7.07;;;4.40;;
62419;SDS011;48460;51.616;5.426;2022-08-07T00:39:40;6.65;;;4.30;;
62419;SDS011;48460;51.616;5.426;2022-08-07T00:42:06;7.53;;;4.57;;
62419;SDS011;48460;51.616;5.426;2022-08-07T00:44:32;11.07;;;4.47;;
62419;SDS011;48460;51.616;5.426;2022-08-07T00:46:59;9.52;;;4.40;;
62419;SDS011;48460;51.616;5.426;2022-08-07T00:49:28;8.32;;;4.60;;
62419;SDS011;48460;51.616;5.426;2022-08-07T00:51:54;13.52;;;4.70;;
62419;SDS011;48460;51.616;5.426;2022-08-07T00:54:19;6.80;;;4.30;;
62419;SDS011;48460;51.616;5.426;2022-08-07T00:56:45;7.63;;;4.57;;
62419;SDS011;48460;51.616;5.426;2022-08-07T00:59:11;8.85;;;4.35;;
62419;SDS011;48460;51.616;5.426;2022-08-07T01:01:37;8.82;;;4.78;;
62419;SDS011;48460;51.616;5.426;2022-08-07T01:04:05;6.68;;;4.57;;
62419;SDS011;48460;51.616;5.426;2022-08-07T01:06:32;7.55;;;4.70;;
62419;SDS011;48460;51.616;5.426;2022-08-07T01:08:59;7.80;;;4.80;;
62419;SDS011;48460;51.616;5.426;2022-08-07T01:11:25;7.63;;;4.70;;
62419;SDS011;48460;51.616;5.426;2022-08-07T01:13:55;9.40;;;4.70;;
62419;SDS011;48460;51.616;5.426;2022-08-07T01:16:20;8.82;;;4.78;;
62419;SDS011;48460;51.616;5.426;2022-08-07T01:18:46;8.10;;;4.93;;
62419;SDS011;48460;51.616;5.426;2022-08-07T01:21:12;10.52;;;4.65;;
62419;SDS011;48460;51.616;5.426;2022-08-07T01:23:39;6.80;;;4.30;;
62419;SDS011;48460;51.616;5.426;2022-08-07T01:26:07;6.68;;;4.57;;
62419;SDS011;48460;51.616;5.426;2022-08-07T01:28:34;8.73;;;4.63;;
62419;SDS011;48460;51.616;5.426;2022-08-07T01:31:00;9.02;;;4.72;;
62419;SDS011;48460;51.616;5.426;2022-08-07T01:33:27;8.00;;;4.80;;
62419;SDS011;48460;51.616;5.426;2022-08-07T01:35:54;8.18;;;4.53;;
62419;SDS011;48460;51.616;5.426;2022-08-07T01:38:21;8.38;;;4.65;;
62419;SDS011;48460;51.616;5.426;2022-08-07T01:40:47;10.70;;;4.82;;
62419;SDS011;48460;51.616;5.426;2022-08-07T01:43:14;8.48;;;4.80;;
62419;SDS011;48460;51.616;5.426;2022-08-07T01:45:40;8.43;;;4.53;;
62419;SDS011;48460;51.616;5.426;2022-08-07T01:48:06;8.77;;;4.97;;
62419;SDS011;48460;51.616;5.426;2022-08-07T01:50:32;8.93;;;5.28;;
62419;SDS011;48460;51.616;5.426;2022-08-07T01:53:00;8.68;;;4.90;;
62419;SDS011;48460;51.616;5.426;2022-08-07T01:55:36;10.20;;;5.13;;
62419;SDS011;48460;51.616;5.426;2022-08-07T01:58:07;6.35;;;4.35;;
62419;SDS011;48460;51.616;5.426;2022-08-07T02:00:34;7.78;;;4.72;;
62419;SDS011;48460;51.616;5.426;2022-08-07T02:03:02;9.88;;;5.03;;
62419;SDS011;48460;51.616;5.426;2022-08-07T02:05:53;11.43;;;4.82;;
62419;SDS011;48460;51.616;5.426;2022-08-07T02:08:23;7.45;;;4.78;;
62419;SDS011;48460;51.616;5.426;2022-08-07T02:10:50;7.97;;;4.20;;
62419;SDS011;48460;51.616;5.426;2022-08-07T02:13:20;7.80;;;4.43;;
62419;SDS011;48460;51.616;5.426;2022-08-07T02:15:49;7.68;;;5.10;;
62419;SDS011;48460;51.616;5.426;2022-08-07T02:18:15;8.00;;;5.07;;
62419;SDS011;48460;51.616;5.426;2022-08-07T02:20:43;9.25;;;5.00;;
62419;SDS011;48460;51.616;5.426;2022-08-07T02:23:11;6.80;;;4.78;;
62419;SDS011;48460;51.616;5.426;2022-08-07T02:25:38;8.55;;;4.93;;
62419;SDS011;48460;51.616;5.426;2022-08-07T02:28:06;7.20;;;4.60;;
62419;SDS011;48460;51.616;5.426;2022-08-07T02:30:34;7.95;;;5.03;;
62419;SDS011;48460;51.616;5.426;2022-08-07T02:33:01;7.50;;;4.90;;
62419;SDS011;48460;51.616;5.426;2022-08-07T02:35:29;11.45;;;5.47;;
62419;SDS011;48460;51.616;5.426;2022-08-07T02:38:00;8.93;;;4.90;;
62419;SDS011;48460;51.616;5.426;2022-08-07T02:40:28;7.35;;;4.78;;
62419;SDS011;48460;51.616;5.426;2022-08-07T02:42:55;6.35;;;4.25;;
62419;SDS011;48460;51.616;5.426;2022-08-07T02:45:24;6.45;;;4.38;;
62419;SDS011;48460;51.616;5.426;2022-08-07T02:47:52;7.00;;;4.50;;
62419;SDS011;48460;51.616;5.426;2022-08-07T02:50:17;7.90;;;4.55;;
62419;SDS011;48460;51.616;5.426;2022-08-07T02:52:44;8.02;;;4.60;;
62419;SDS011;48460;51.616;5.426;2022-08-07T02:55:20;7.95;;;4.72;;
62419;SDS011;48460;51.616;5.426;2022-08-07T02:57:48;9.20;;;5.35;;
62419;SDS011;48460;51.616;5.426;2022-08-07T03:00:15;9.82;;;5.45;;
62419;SDS011;48460;51.616;5.426;2022-08-07T03:02:41;7.72;;;5.15;;
62419;SDS011;48460;51.616;5.426;2022-08-07T03:05:10;9.85;;;5.68;;
62419;SDS011;48460;51.616;5.426;2022-08-07T03:07:38;11.02;;;5.93;;
62419;SDS011;48460;51.616;5.426;2022-08-07T03:10:04;8.90;;;5.88;;
62419;SDS011;48460;51.616;5.426;2022-08-07T03:12:31;11.23;;;5.63;;
62419;SDS011;48460;51.616;5.426;2022-08-07T03:14:58;11.95;;;5.75;;
62419;SDS011;48460;51.616;5.426;2022-08-07T03:17:24;9.32;;;5.57;;
62419;SDS011;48460;51.616;5.426;2022-08-07T03:19:50;8.60;;;5.18;;
62419;SDS011;48460;51.616;5.426;2022-08-07T03:22:16;8.20;;;5.45;;
62419;SDS011;48460;51.616;5.426;2022-08-07T03:24:43;9.85;;;5.60;;
62419;SDS011;48460;51.616;5.426;2022-08-07T03:27:09;8.65;;;5.50;;
62419;SDS011;48460;51.616;5.426;2022-08-07T03:29:44;12.00;;;6.25;;
62419;SDS011;48460;51.616;5.426;2022-08-07T03:32:15;8.50;;;5.53;;
62419;SDS011;48460;51.616;5.426;2022-08-07T03:34:45;9.05;;;5.60;;
62419;SDS011;48460;51.616;5.426;2022-08-07T03:37:14;7.90;;;5.57;;
62419;SDS011;48460;51.616;5.426;2022-08-07T03:39:43;9.38;;;5.40;;
62419;SDS011;48460;51.616;5.426;2022-08-07T03:42:11;8.45;;;5.22;;
62419;SDS011;48460;51.616;5.426;2022-08-07T03:44:38;9.45;;;5.30;;
62419;SDS011;48460;51.616;5.426;2022-08-07T03:47:04;8.52;;;5.63;;
62419;SDS011;48460;51.616;5.426;2022-08-07T03:49:31;7.70;;;5.18;;
62419;SDS011;48460;51.616;5.426;2022-08-07T03:51:58;9.07;;;5.03;;
62419;SDS011;48460;51.616;5.426;2022-08-07T03:54:24;10.55;;;5.50;;
62419;SDS011;48460;51.616;5.426;2022-08-07T03:56:50;9.88;;;5.68;;
62419;SDS011;48460;51.616;5.426;2022-08-07T03:59:17;8.65;;;5.20;;
62419;SDS011;48460;51.616;5.426;2022-08-07T04:01:43;7.82;;;5.43;;
62419;SDS011;48460;51.616;5.426;2022-08-07T04:04:10;8.65;;;5.57;;
62419;SDS011;48460;51.616;5.426;2022-08-07T04:06:36;6.78;;;5.20;;
62419;SDS011;48460;51.616;5.426;2022-08-07T04:09:05;7.13;;;5.20;;
62419;SDS011;48460;51.616;5.426;2022-08-07T04:11:31;7.82;;;5.32;;
62419;SDS011;48460;51.616;5.426;2022-08-07T04:13:58;7.95;;;5.78;;
62419;SDS011;48460;51.616;5.426;2022-08-07T04:16:29;9.13;;;6.05;;
62419;SDS011;48460;51.616;5.426;2022-08-07T04:18:55;10.73;;;6.10;;
62419;SDS011;48460;51.616;5.426;2022-08-07T04:21:21;12.82;;;6.82;;
62419;SDS011;48460;51.616;5.426;2022-08-07T04:23:47;11.60;;;6.10;;
62419;SDS011;48460;51.616;5.426;2022-08-07T04:26:13;8.98;;;5.80;;
62419;SDS011;48460;51.616;5.426;2022-08-07T04:28:39;11.50;;;6.28;;
62419;SDS011;48460;51.616;5.426;2022-08-07T04:31:05;11.52;;;6.38;;
62419;SDS011;48460;51.616;5.426;2022-08-07T04:33:32;10.55;;;6.15;;
62419;SDS011;48460;51.616;5.426;2022-08-07T04:36:00;14.88;;;6.70;;
62419;SDS011;48460;51.616;5.426;2022-08-07T04:38:26;10.80;;;6.32;;
62419;SDS011;48460;51.616;5.426;2022-08-07T04:40:51;7.22;;;5.28;;
62419;SDS011;48460;51.616;5.426;2022-08-07T04:43:18;9.10;;;5.88;;
62419;SDS011;48460;51.616;5.426;2022-08-07T04:46:15;9.35;;;6.10;;
62419;SDS011;48460;51.616;5.426;2022-08-07T04:57:00;10.40;;;6.10;;
62419;SDS011;48460;51.616;5.426;2022-08-07T05:02:11;15.20;;;6.97;;
62419;SDS011;48460;51.616;5.426;2022-08-07T05:05:05;8.60;;;6.25;;
62419;SDS011;48460;51.616;5.426;2022-08-07T05:07:43;10.27;;;6.00;;
62419;SDS011;48460;51.616;5.426;2022-08-07T05:10:28;8.45;;;5.97;;
62419;SDS011;48460;51.616;5.426;2022-08-07T05:13:00;12.15;;;6.47;;
62419;SDS011;48460;51.616;5.426;2022-08-07T05:15:33;11.07;;;6.68;;
62419;SDS011;48460;51.616;5.426;2022-08-07T05:18:06;13.38;;;7.20;;
62419;SDS011;48460;51.616;5.426;2022-08-07T05:20:39;13.15;;;6.85;;
62419;SDS011;48460;51.616;5.426;2022-08-07T05:23:11;11.40;;;6.72;;
62419;SDS011;48460;51.616;5.426;2022-08-07T05:25:41;10.63;;;7.05;;
62419;SDS011;48460;51.616;5.426;2022-08-07T05:28:08;11.80;;;7.20;;
62419;SDS011;48460;51.616;5.426;2022-08-07T05:30:37;10.50;;;6.90;;
62419;SDS011;48460;51.616;5.426;2022-08-07T05:33:04;12.63;;;7.75;;
62419;SDS011;48460;51.616;5.426;2022-08-07T05:35:31;12.05;;;7.25;;
62419;SDS011;48460;51.616;5.426;2022-08-07T05:37:57;14.30;;;7.50;;
62419;SDS011;48460;51.616;5.426;2022-08-07T05:40:24;14.20;;;7.93;;
62419;SDS011;48460;51.616;5.426;2022-08-07T05:42:50;14.20;;;7.38;;
62419;SDS011;48460;51.616;5.426;2022-08-07T05:45:17;12.90;;;7.40;;
62419;SDS011;48460;51.616;5.426;2022-08-07T05:47:45;12.65;;;8.07;;
62419;SDS011;48460;51.616;5.426;2022-08-07T05:50:10;12.20;;;7.75;;
62419;SDS011;48460;51.616;5.426;2022-08-07T05:52:37;14.60;;;8.18;;
62419;SDS011;48460;51.616;5.426;2022-08-07T05:55:02;13.95;;;8.10;;
62419;SDS011;48460;51.616;5.426;2022-08-07T05:57:28;12.27;;;7.78;;
62419;SDS011;48460;51.616;5.426;2022-08-07T05:59:55;14.98;;;7.72;;
62419;SDS011;48460;51.616;5.426;2022-08-07T06:02:23;12.43;;;8.05;;
62419;SDS011;48460;51.616;5.426;2022-08-07T06:04:54;12.77;;;7.95;;
62419;SDS011;48460;51.616;5.426;2022-08-07T06:07:23;12.88;;;8.55;;
62419;SDS011;48460;51.616;5.426;2022-08-07T06:09:49;12.55;;;8.00;;
62419;SDS011;48460;51.616;5.426;2022-08-07T06:12:15;15.15;;;8.20;;
62419;SDS011;48460;51.616;5.426;2022-08-07T06:14:41;15.00;;;8.02;;
62419;SDS011;48460;51.616;5.426;2022-08-07T06:17:07;13.57;;;7.70;;
62419;SDS011;48460;51.616;5.426;2022-08-07T06:19:34;16.58;;;7.80;;
62419;SDS011;48460;51.616;5.426;2022-08-07T06:22:00;11.30;;;8.10;;
62419;SDS011;48460;51.616;5.426;2022-08-07T06:24:26;12.93;;;7.95;;
62419;SDS011;48460;51.616;5.426;2022-08-07T06:26:51;12.57;;;8.13;;
62419;SDS011;48460;51.616;5.426;2022-08-07T06:29:17;11.50;;;7.18;;
62419;SDS011;48460;51.616;5.426;2022-08-07T06:31:42;11.45;;;7.68;;
62419;SDS011;48460;51.616;5.426;2022-08-07T06:34:08;11.80;;;8.10;;
62419;SDS011;48460;51.616;5.426;2022-08-07T06:36:35;11.43;;;7.70;;
62419;SDS011;48460;51.616;5.426;2022-08-07T06:39:00;13.35;;;8.25;;
62419;SDS011;48460;51.616;5.426;2022-08-07T06:41:27;12.43;;;7.43;;
62419;SDS011;48460;51.616;5.426;2022-08-07T06:46:23;12.70;;;7.82;;
62419;SDS011;48460;51.616;5.426;2022-08-07T06:48:49;12.95;;;8.10;;
62419;SDS011;48460;51.616;5.426;2022-08-07T06:51:16;25.85;;;8.20;;
62419;SDS011;48460;51.616;5.426;2022-08-07T06:53:45;14.75;;;7.68;;
62419;SDS011;48460;51.616;5.426;2022-08-07T06:56:16;14.20;;;7.55;;
62419;SDS011;48460;51.616;5.426;2022-08-07T06:59:07;13.32;;;8.13;;
62419;SDS011;48460;51.616;5.426;2022-08-07T07:01:36;12.25;;;8.00;;
62419;SDS011;48460;51.616;5.426;2022-08-07T07:04:03;13.60;;;7.72;;
62419;SDS011;48460;51.616;5.426;2022-08-07T07:06:30;11.20;;;7.47;;
62419;SDS011;48460;51.616;5.426;2022-08-07T07:09:11;10.45;;;7.10;;
62419;SDS011;48460;51.616;5.426;2022-08-07T07:11:48;13.90;;;7.70;;
62419;SDS011;48460;51.616;5.426;2022-08-07T07:14:33;15.60;;;8.15;;
62419;SDS011;48460;51.616;5.426;2022-08-07T07:17:05;10.93;;;7.28;;
62419;SDS011;48460;51.616;5.426;2022-08-07T07:22:05;11.90;;;7.00;;
62419;SDS011;48460;51.616;5.426;2022-08-07T07:24:32;10.05;;;7.20;;
62419;SDS011;48460;51.616;5.426;2022-08-07T07:26:59;12.35;;;6.88;;
62419;SDS011;48460;51.616;5.426;2022-08-07T07:29:29;10.25;;;7.00;;
62419;SDS011;48460;51.616;5.426;2022-08-07T07:32:01;14.18;;;6.93;;
62419;SDS011;48460;51.616;5.426;2022-08-07T07:34:29;10.38;;;6.68;;
62419;SDS011;48460;51.616;5.426;2022-08-07T07:36:58;12.00;;;6.68;;
62419;SDS011;48460;51.616;5.426;2022-08-07T07:39:25;10.50;;;6.63;;
62419;SDS011;48460;51.616;5.426;2022-08-07T07:41:53;9.50;;;6.55;;
62419;SDS011;48460;51.616;5.426;2022-08-07T07:46:51;9.32;;;5.97;;
62419;SDS011;48460;51.616;5.426;2022-08-07T07:49:19;14.32;;;6.55;;
62419;SDS011;48460;51.616;5.426;2022-08-07T07:51:50;12.60;;;6.00;;
62419;SDS011;48460;51.616;5.426;2022-08-07T07:54:29;11.02;;;6.63;;
62419;SDS011;48460;51.616;5.426;2022-08-07T07:56:59;9.77;;;6.32;;
62419;SDS011;48460;51.616;5.426;2022-08-07T07:59:25;13.63;;;6.80;;
62419;SDS011;48460;51.616;5.426;2022-08-07T08:01:53;12.45;;;6.88;;
62419;SDS011;48460;51.616;5.426;2022-08-07T08:04:20;12.60;;;6.45;;
62419;SDS011;48460;51.616;5.426;2022-08-07T08:06:50;11.03;;;7.10;;
62419;SDS011;48460;51.616;5.426;2022-08-07T08:09:18;10.52;;;6.57;;
62419;SDS011;48460;51.616;5.426;2022-08-07T08:11:51;10.38;;;5.95;;
62419;SDS011;48460;51.616;5.426;2022-08-07T08:14:20;11.73;;;7.05;;
62419;SDS011;48460;51.616;5.426;2022-08-07T08:16:46;12.20;;;6.75;;
62419;SDS011;48460;51.616;5.426;2022-08-07T08:19:18;12.18;;;6.50;;
62419;SDS011;48460;51.616;5.426;2022-08-07T08:21:59;9.73;;;6.30;;
62419;SDS011;48460;51.616;5.426;2022-08-07T08:24:44;12.23;;;6.07;;
62419;SDS011;48460;51.616;5.426;2022-08-07T08:27:33;14.68;;;6.47;;
62419;SDS011;48460;51.616;5.426;2022-08-07T08:30:02;10.02;;;5.78;;
62419;SDS011;48460;51.616;5.426;2022-08-07T08:32:33;10.63;;;6.30;;
62419;SDS011;48460;51.616;5.426;2022-08-07T08:35:04;11.10;;;6.20;;
62419;SDS011;48460;51.616;5.426;2022-08-07T08:37:34;10.15;;;6.30;;
62419;SDS011;48460;51.616;5.426;2022-08-07T08:40:01;8.30;;;6.28;;
62419;SDS011;48460;51.616;5.426;2022-08-07T08:42:45;8.85;;;6.35;;
62419;SDS011;48460;51.616;5.426;2022-08-07T08:50:59;9.40;;;6.75;;
62419;SDS011;48460;51.616;5.426;2022-08-07T08:53:33;12.77;;;6.43;;
62419;SDS011;48460;51.616;5.426;2022-08-07T08:56:09;10.27;;;5.95;;
62419;SDS011;48460;51.616;5.426;2022-08-07T08:58:51;9.93;;;6.15;;
62419;SDS011;48460;51.616;5.426;2022-08-07T09:07:09;10.27;;;6.28;;
62419;SDS011;48460;51.616;5.426;2022-08-07T09:20:45;10.00;;;5.05;;
62419;SDS011;48460;51.616;5.426;2022-08-07T09:28:58;7.60;;;5.03;;
62419;SDS011;48460;51.616;5.426;2022-08-07T09:31:34;6.80;;;5.03;;
62419;SDS011;48460;51.616;5.426;2022-08-07T09:37:10;8.43;;;4.70;;
62419;SDS011;48460;51.616;5.426;2022-08-07T09:42:29;7.30;;;4.50;;
62419;SDS011;48460;51.616;5.426;2022-08-07T09:45:10;11.13;;;4.55;;
62419;SDS011;48460;51.616;5.426;2022-08-07T09:47:50;9.75;;;4.70;;
62419;SDS011;48460;51.616;5.426;2022-08-07T09:58:51;10.32;;;4.13;;
62419;SDS011;48460;51.616;5.426;2022-08-07T10:01:48;5.72;;;3.40;;
62419;SDS011;48460;51.616;5.426;2022-08-07T10:40:05;7.60;;;4.25;;
62419;SDS011;48460;51.616;5.426;2022-08-07T10:42:39;8.70;;;4.15;;
62419;SDS011;48460;51.616;5.426;2022-08-07T10:47:48;11.30;;;4.65;;
62419;SDS011;48460;51.616;5.426;2022-08-07T10:52:59;10.60;;;4.00;;
62419;SDS011;48460;51.616;5.426;2022-08-07T10:55:26;6.15;;;3.90;;
62419;SDS011;48460;51.616;5.426;2022-08-07T10:58:04;9.68;;;3.80;;
62419;SDS011;48460;51.616;5.426;2022-08-07T11:03:28;7.15;;;3.45;;
62419;SDS011;48460;51.616;5.426;2022-08-07T11:06:07;11.07;;;3.47;;
62419;SDS011;48460;51.616;5.426;2022-08-07T11:08:45;5.83;;;3.13;;
62419;SDS011;48460;51.616;5.426;2022-08-07T11:11:22;5.22;;;2.92;;
62419;SDS011;48460;51.616;5.426;2022-08-07T11:19:57;6.13;;;3.30;;
62419;SDS011;48460;51.616;5.426;2022-08-07T11:22:34;7.30;;;3.45;;
62419;SDS011;48460;51.616;5.426;2022-08-07T11:25:29;11.27;;;3.40;;
62419;SDS011;48460;51.616;5.426;2022-08-07T11:28:08;6.45;;;3.38;;
62419;SDS011;48460;51.616;5.426;2022-08-07T11:30:52;7.97;;;3.25;;
62419;SDS011;48460;51.616;5.426;2022-08-07T11:42:14;5.60;;;3.42;;
62419;SDS011;48460;51.616;5.426;2022-08-07T11:47:28;5.03;;;3.20;;
62419;SDS011;48460;51.616;5.426;2022-08-07T11:58:48;3.90;;;2.75;;
62419;SDS011;48460;51.616;5.426;2022-08-07T12:07:32;5.07;;;3.03;;
62419;SDS011;48460;51.616;5.426;2022-08-07T12:10:13;4.78;;;3.03;;
62419;SDS011;48460;51.616;5.426;2022-08-07T12:12:45;6.05;;;3.08;;
62419;SDS011;48460;51.616;5.426;2022-08-07T12:15:20;4.88;;;2.80;;
62419;SDS011;48460;51.616;5.426;2022-08-07T12:20:59;4.60;;;2.97;;
62419;SDS011;48460;51.616;5.426;2022-08-07T12:26:28;4.50;;;2.95;;
62419;SDS011;48460;51.616;5.426;2022-08-07T12:29:14;5.18;;;2.97;;
62419;SDS011;48460;51.616;5.426;2022-08-07T12:32:06;5.65;;;3.42;;
62419;SDS011;48460;51.616;5.426;2022-08-07T12:34:40;7.63;;;3.10;;
62419;SDS011;48460;51.616;5.426;2022-08-07T12:37:09;6.72;;;3.20;;
62419;SDS011;48460;51.616;5.426;2022-08-07T12:39:40;5.50;;;3.30;;
62419;SDS011;48460;51.616;5.426;2022-08-07T12:42:32;5.70;;;3.38;;
62419;SDS011;48460;51.616;5.426;2022-08-07T12:45:34;5.43;;;3.10;;
62419;SDS011;48460;51.616;5.426;2022-08-07T12:51:07;5.47;;;2.92;;
62419;SDS011;48460;51.616;5.426;2022-08-07T12:53:56;5.07;;;3.20;;
62419;SDS011;48460;51.616;5.426;2022-08-07T12:59:03;4.90;;;3.30;;
62419;SDS011;48460;51.616;5.426;2022-08-07T13:07:36;5.10;;;3.05;;
62419;SDS011;48460;51.616;5.426;2022-08-07T13:15:52;3.85;;;2.70;;
62419;SDS011;48460;51.616;5.426;2022-08-07T13:20:58;4.70;;;2.90;;
62419;SDS011;48460;51.616;5.426;2022-08-07T13:23:44;4.72;;;3.00;;
62419;SDS011;48460;51.616;5.426;2022-08-07T13:26:23;3.35;;;2.60;;
62419;SDS011;48460;51.616;5.426;2022-08-07T13:31:49;4.40;;;2.70;;
62419;SDS011;48460;51.616;5.426;2022-08-07T13:37:12;5.07;;;3.00;;
62419;SDS011;48460;51.616;5.426;2022-08-07T13:39:44;5.25;;;2.70;;
62419;SDS011;48460;51.616;5.426;2022-08-07T13:42:12;5.18;;;3.00;;
62419;SDS011;48460;51.616;5.426;2022-08-07T13:44:39;4.53;;;2.63;;
62419;SDS011;48460;51.616;5.426;2022-08-07T13:47:06;5.43;;;2.70;;
62419;SDS011;48460;51.616;5.426;2022-08-07T13:49:37;3.10;;;2.58;;
62419;SDS011;48460;51.616;5.426;2022-08-07T13:52:08;8.20;;;2.92;;
62419;SDS011;48460;51.616;5.426;2022-08-07T13:54:35;4.68;;;2.83;;
62419;SDS011;48460;51.616;5.426;2022-08-07T13:57:04;4.05;;;2.60;;
62419;SDS011;48460;51.616;5.426;2022-08-07T13:59:38;3.25;;;2.42;;
62419;SDS011;48460;51.616;5.426;2022-08-07T14:02:08;3.10;;;2.42;;
62419;SDS011;48460;51.616;5.426;2022-08-07T14:04:59;4.78;;;2.40;;
62419;SDS011;48460;51.616;5.426;2022-08-07T14:07:30;3.65;;;2.70;;
62419;SDS011;48460;51.616;5.426;2022-08-07T14:09:57;4.65;;;2.70;;
62419;SDS011;48460;51.616;5.426;2022-08-07T14:15:05;4.22;;;2.40;;
62419;SDS011;48460;51.616;5.426;2022-08-07T14:17:35;5.32;;;2.95;;
62419;SDS011;48460;51.616;5.426;2022-08-07T14:22:35;4.25;;;2.60;;
62419;SDS011;48460;51.616;5.426;2022-08-07T14:25:07;3.55;;;2.60;;
62419;SDS011;48460;51.616;5.426;2022-08-07T14:27:37;4.38;;;2.50;;
62419;SDS011;48460;51.616;5.426;2022-08-07T14:30:06;5.25;;;2.78;;
62419;SDS011;48460;51.616;5.426;2022-08-07T14:32:41;3.42;;;2.70;;
62419;SDS011;48460;51.616;5.426;2022-08-07T14:35:23;3.75;;;2.63;;
62419;SDS011;48460;51.616;5.426;2022-08-07T14:37:51;3.50;;;2.63;;
62419;SDS011;48460;51.616;5.426;2022-08-07T14:40:21;4.07;;;2.80;;
62419;SDS011;48460;51.616;5.426;2022-08-07T14:43:08;4.18;;;2.50;;
62419;SDS011;48460;51.616;5.426;2022-08-07T14:45:44;4.05;;;2.50;;
62419;SDS011;48460;51.616;5.426;2022-08-07T14:48:12;6.95;;;2.70;;
62419;SDS011;48460;51.616;5.426;2022-08-07T14:50:42;4.85;;;2.53;;
62419;SDS011;48460;51.616;5.426;2022-08-07T14:55:37;5.65;;;2.92;;
62419;SDS011;48460;51.616;5.426;2022-08-07T14:58:06;2.75;;;2.40;;
62419;SDS011;48460;51.616;5.426;2022-08-07T15:00:33;4.07;;;2.38;;
62419;SDS011;48460;51.616;5.426;2022-08-07T15:03:03;3.63;;;2.63;;
62419;SDS011;48460;51.616;5.426;2022-08-07T15:05:32;3.78;;;2.40;;
62419;SDS011;48460;51.616;5.426;2022-08-07T15:07:58;4.22;;;2.50;;
62419;SDS011;48460;51.616;5.426;2022-08-07T15:10:27;3.92;;;2.30;;
62419;SDS011;48460;51.616;5.426;2022-08-07T15:12:55;3.20;;;2.45;;
62419;SDS011;48460;51.616;5.426;2022-08-07T15:15:34;5.45;;;2.40;;
62419;SDS011;48460;51.616;5.426;2022-08-07T15:18:13;3.97;;;2.80;;
62419;SDS011;48460;51.616;5.426;2022-08-07T15:20:42;5.40;;;2.67;;
62419;SDS011;48460;51.616;5.426;2022-08-07T15:23:14;3.78;;;2.42;;
62419;SDS011;48460;51.616;5.426;2022-08-07T15:25:49;5.75;;;2.40;;
62419;SDS011;48460;51.616;5.426;2022-08-07T15:28:19;6.18;;;2.78;;
62419;SDS011;48460;51.616;5.426;2022-08-07T15:30:47;7.32;;;2.80;;
62419;SDS011;48460;51.616;5.426;2022-08-07T15:33:18;6.32;;;3.40;;
62419;SDS011;48460;51.616;5.426;2022-08-07T15:35:51;3.75;;;2.55;;
62419;SDS011;48460;51.616;5.426;2022-08-07T15:38:27;5.57;;;2.53;;
62419;SDS011;48460;51.616;5.426;2022-08-07T15:40:54;3.95;;;2.40;;
62419;SDS011;48460;51.616;5.426;2022-08-07T15:43:24;3.33;;;2.50;;
62419;SDS011;48460;51.616;5.426;2022-08-07T15:45:53;3.65;;;2.40;;
62419;SDS011;48460;51.616;5.426;2022-08-07T15:48:23;3.28;;;2.50;;
62419;SDS011;48460;51.616;5.426;2022-08-07T15:50:57;4.03;;;2.45;;
62419;SDS011;48460;51.616;5.426;2022-08-07T15:53:33;3.50;;;2.60;;
62419;SDS011;48460;51.616;5.426;2022-08-07T15:56:03;3.63;;;2.55;;
62419;SDS011;48460;51.616;5.426;2022-08-07T15:58:37;5.07;;;2.80;;
62419;SDS011;48460;51.616;5.426;2022-08-07T16:01:20;5.15;;;2.90;;
62419;SDS011;48460;51.616;5.426;2022-08-07T16:03:48;3.60;;;2.50;;
62419;SDS011;48460;51.616;5.426;2022-08-07T16:06:23;3.45;;;2.40;;
62419;SDS011;48460;51.616;5.426;2022-08-07T16:08:53;4.28;;;2.63;;
62419;SDS011;48460;51.616;5.426;2022-08-07T16:11:28;4.37;;;2.57;;
62419;SDS011;48460;51.616;5.426;2022-08-07T16:14:13;4.80;;;2.70;;
62419;SDS011;48460;51.616;5.426;2022-08-07T16:17:02;3.90;;;2.50;;
62419;SDS011;48460;51.616;5.426;2022-08-07T16:24:56;3.78;;;2.65;;
62419;SDS011;48460;51.616;5.426;2022-08-07T16:27:30;6.30;;;2.70;;
62419;SDS011;48460;51.616;5.426;2022-08-07T16:32:27;5.95;;;3.03;;
62419;SDS011;48460;51.616;5.426;2022-08-07T16:35:04;4.18;;;2.65;;
62419;SDS011;48460;51.616;5.426;2022-08-07T16:46:14;4.72;;;3.80;;
62419;SDS011;48460;51.616;5.426;2022-08-07T16:57:03;5.00;;;3.40;;
62419;SDS011;48460;51.616;5.426;2022-08-07T17:07:56;10.50;;;4.20;;
62419;SDS011;48460;51.616;5.426;2022-08-07T17:15:52;7.00;;;3.60;;
62419;SDS011;48460;51.616;5.426;2022-08-07T17:18:28;6.13;;;3.80;;
62419;SDS011;48460;51.616;5.426;2022-08-07T17:21:16;6.07;;;3.75;;
62419;SDS011;48460;51.616;5.426;2022-08-07T17:26:16;8.75;;;3.50;;
62419;SDS011;48460;51.616;5.426;2022-08-07T17:36:33;10.60;;;3.60;;
62419;SDS011;48460;51.616;5.426;2022-08-07T17:39:00;7.00;;;3.50;;
62419;SDS011;48460;51.616;5.426;2022-08-07T17:44:23;5.68;;;3.30;;
62419;SDS011;48460;51.616;5.426;2022-08-07T17:46:55;5.88;;;3.20;;
62419;SDS011;48460;51.616;5.426;2022-08-07T17:49:26;8.27;;;3.40;;
62419;SDS011;48460;51.616;5.426;2022-08-07T17:52:07;5.22;;;3.30;;
62419;SDS011;48460;51.616;5.426;2022-08-07T17:59:43;5.68;;;3.20;;
62419;SDS011;48460;51.616;5.426;2022-08-07T18:05:02;5.13;;;3.20;;
62419;SDS011;48460;51.616;5.426;2022-08-07T18:10:12;6.57;;;2.80;;
62419;SDS011;48460;51.616;5.426;2022-08-07T18:15:27;5.60;;;3.00;;
62419;SDS011;48460;51.616;5.426;2022-08-07T18:17:59;5.75;;;3.38;;
62419;SDS011;48460;51.616;5.426;2022-08-07T18:20:29;7.47;;;2.88;;
62419;SDS011;48460;51.616;5.426;2022-08-07T18:23:03;5.00;;;2.88;;
62419;SDS011;48460;51.616;5.426;2022-08-07T18:25:31;4.88;;;3.00;;
62419;SDS011;48460;51.616;5.426;2022-08-07T18:28:05;5.75;;;3.05;;
62419;SDS011;48460;51.616;5.426;2022-08-07T18:30:57;6.63;;;3.10;;
62419;SDS011;48460;51.616;5.426;2022-08-07T18:34:04;6.68;;;3.20;;
62419;SDS011;48460;51.616;5.426;2022-08-07T18:36:38;8.77;;;3.03;;
62419;SDS011;48460;51.616;5.426;2022-08-07T18:39:28;5.28;;;2.67;;
62419;SDS011;48460;51.616;5.426;2022-08-07T18:42:20;6.25;;;3.10;;
62419;SDS011;48460;51.616;5.426;2022-08-07T18:45:08;7.93;;;3.40;;
62419;SDS011;48460;51.616;5.426;2022-08-07T19:03:57;6.35;;;3.10;;
62419;SDS011;48460;51.616;5.426;2022-08-07T19:09:09;5.75;;;2.80;;
62419;SDS011;48460;51.616;5.426;2022-08-07T19:11:59;6.80;;;3.33;;
62419;SDS011;48460;51.616;5.426;2022-08-07T19:14:43;7.43;;;3.15;;
62419;SDS011;48460;51.616;5.426;2022-08-07T19:17:34;18.33;;;3.30;;
62419;SDS011;48460;51.616;5.426;2022-08-07T19:20:09;7.95;;;3.50;;
62419;SDS011;48460;51.616;5.426;2022-08-07T19:25:12;5.70;;;3.13;;
62419;SDS011;48460;51.616;5.426;2022-08-07T19:27:39;7.60;;;3.28;;
62419;SDS011;48460;51.616;5.426;2022-08-07T19:30:09;7.20;;;3.22;;